カンクン の空港の天気 - METARとTAF

カンクン国際空港 ( MMUN / CUN ) - メキシコ キンタナ・ロー州カンクン
飛行場実況気象(Metar)
観測時間03/28 14:40 CST (03/28 20:40 UTC)
風向・風速東南東 4m/s
視程10km以上
天気現象
全天の4割程度の雲 雲底高度 550m
気温28℃
湿度62%
気圧1013.7hPa
METARMMUN 282040Z 12007KT 7SM SCT018 28/20 A2993 RMK SLP137 57020 953 8/100 MDT CU
過去の天気等 Google飛行場航空写真 Wunderground天気予報

過去48時間のMETAR

飛行場予報(TAF)
発表時間: 3/28 10:48 CST (3/28 16:48 UTC)
予報対象時間: 28日12時 CST ~ 29日18時 CST
風向・風速東南東 8m/s
視程10km以上
全天の8割程度の雲 雲底高度 460m
28日18時 CST から
風向・風速東南東 6m/s
視程10km以上
なし
29日9時 CST から
風向・風速東南東 8m/s
視程10km以上
全天の8割程度の雲 雲底高度 460m
29日15時 CST から
風向・風速東南東 8m/s
視程10km以上
全天の4割程度の雲 雲底高度 610m
TAF MMUN 281648Z 2818/2924 12015KT P6SM BKN015 TX29/2820Z TN23/2912Z
FM290000 12012KT P6SM SKC
FM291500 12015KT P6SM BKN015
FM292100 12015KT P6SM SCT020